Wolfcreek, Wisconsin
Current Conditions -  °F | °C
As of 11:35 AM on Thursday 23 Oct 2014 (Local Time) from KOEO Reporting Station
Haze Haze  
Wind Chill: 12°   Ceiling: 400
Heat Index: 12°   Visibility: 3mi
Dew Point: 12°   Wind: 5mph
Humidity: 100%   Direction: 220°SW
Pressure: 30.03"   Gusts: NA
Location:  45.4182°N, 92.6295°W
Report Text: KOEO 231635Z AUTO 22004KT 3SM BR OVC004 12/12 A3003 RMK AO2 T01200120
Loading
Personal Weather Stations






























Interactive Weather Map
Tropical Storm Tracking
New forecast layout! Learn more

10-Day Weather Forecast

Advertisements
Track Severe Weather on mobile